createdAt,value
2022-09-09T00:01:55.285Z,97497.19
2022-09-09T00:04:33.708Z,97492.84
2022-09-09T00:07:25.136Z,97483.19
2022-09-09T00:10:09.928Z,97493.84
2022-09-09T00:12:56.953Z,97485.34
2022-09-09T00:15:44.668Z,97482.75
2022-09-09T00:18:24.466Z,97486.66
2022-09-09T00:20:59.443Z,97481.31
2022-09-09T00:23:31.384Z,97483.75
2022-09-09T00:26:42.041Z,97478.84
2022-09-09T00:29:34.477Z,97468.13
2022-09-09T00:32:13.479Z,97478.41
2022-09-09T00:34:48.293Z,97475.94
2022-09-09T00:37:15.260Z,97464.81
2022-09-09T00:39:48.857Z,97466.81
2022-09-09T00:42:17.319Z,97479.44
2022-09-09T00:45:02.548Z,97477.84
2022-09-09T00:47:40.997Z,97473.69
2022-09-09T00:50:33.897Z,97472.47
2022-09-09T00:53:06.950Z,97475.00
2022-09-09T00:56:09.246Z,97484.66
2022-09-09T00:58:35.962Z,97483.25
2022-09-09T01:01:10.298Z,97480.34
2022-09-09T01:04:03.205Z,97475.31
2022-09-09T01:06:40.280Z,97479.91
2022-09-09T01:09:23.732Z,97476.19
2022-09-09T01:12:15.919Z,97485.41
2022-09-09T01:15:31.397Z,97483.69
2022-09-09T01:18:27.313Z,97488.31
2022-09-09T01:21:23.098Z,97482.81
2022-09-09T01:23:59.926Z,97482.38
2022-09-09T01:26:38.954Z,97491.78
2022-09-09T01:29:09.949Z,97479.34
2022-09-09T01:31:42.358Z,97479.91
2022-09-09T01:34:12.921Z,97476.59
2022-09-09T01:36:54.447Z,97479.34
2022-09-09T01:39:21.885Z,97481.34
2022-09-09T01:41:48.603Z,97476.75
2022-09-09T01:44:15.477Z,97481.38
2022-09-09T01:46:42.111Z,97485.41
2022-09-09T01:49:09.646Z,97479.06
2022-09-09T01:51:40.287Z,97474.03
2022-09-09T01:54:07.885Z,97475.88
2022-09-09T01:56:50.669Z,97467.94
2022-09-09T01:59:51.748Z,97468.38
2022-09-09T02:03:03.405Z,97482.09
2022-09-09T02:05:56.343Z,97477.75
2022-09-09T02:08:34.281Z,97472.44
2022-09-09T02:11:06.102Z,97472.72
2022-09-09T02:13:35.457Z,97470.84
2022-09-09T02:16:08.905Z,97473.41
2022-09-09T02:18:45.949Z,97470.13
2022-09-09T02:21:14.742Z,97473.56
2022-09-09T02:23:43.795Z,97470.56
2022-09-09T02:26:14.351Z,97462.72
2022-09-09T02:28:43.156Z,97464.34
2022-09-09T02:31:10.230Z,97469.69
2022-09-09T02:33:42.474Z,97467.66
2022-09-09T02:36:11.916Z,97471.84
2022-09-09T02:38:47.297Z,97465.91
2022-09-09T02:41:13.801Z,97469.09
2022-09-09T02:43:40.325Z,97471.25
2022-09-09T02:47:02.289Z,97473.13
2022-09-09T02:50:12.831Z,97472.84
2022-09-09T02:53:31.653Z,97475.16
2022-09-09T02:56:10.230Z,97474.44
2022-09-09T02:58:37.717Z,97475.28
2022-09-09T03:01:04.526Z,97471.09
2022-09-09T03:03:31.367Z,97474.84
2022-09-09T03:05:58.074Z,97473.41
2022-09-09T03:08:24.786Z,97478.59
2022-09-09T03:10:51.543Z,97477.16
2022-09-09T03:13:20.421Z,97487.25
2022-09-09T03:15:49.325Z,97482.63
2022-09-09T03:18:15.880Z,97481.50
2022-09-09T03:20:43.131Z,97481.91
2022-09-09T03:23:14.972Z,97484.53
2022-09-09T03:25:49.267Z,97483.34
2022-09-09T03:28:16.284Z,97476.72
2022-09-09T03:30:42.934Z,97479.03
2022-09-09T03:33:09.528Z,97480.47
2022-09-09T03:35:36.993Z,97474.53
2022-09-09T03:38:03.547Z,97474.69
2022-09-09T03:40:30.137Z,97479.88
2022-09-09T03:42:56.713Z,97478.16
2022-09-09T03:45:23.381Z,97479.59
2022-09-09T03:47:50.974Z,97476.84
2022-09-09T03:50:19.241Z,97480.16
2022-09-09T03:52:45.877Z,97486.34
2022-09-09T03:55:12.659Z,97485.78
2022-09-09T03:57:39.197Z,97477.53
2022-09-09T04:00:08.151Z,97478.59
2022-09-09T04:02:34.875Z,97479.16
2022-09-09T04:05:02.110Z,97476.56
2022-09-09T04:07:29.133Z,97474.13
2022-09-09T04:09:55.786Z,97473.97
2022-09-09T04:12:23.414Z,97464.47
2022-09-09T04:14:50.101Z,97473.66
2022-09-09T04:17:16.933Z,97468.34
2022-09-09T04:19:43.496Z,97461.13
2022-09-09T04:22:10.494Z,97465.91
2022-09-09T04:24:37.302Z,97464.59
2022-09-09T04:27:04.190Z,97464.16
2022-09-09T04:29:30.742Z,97460.72
2022-09-09T04:31:57.454Z,97466.63
2022-09-09T04:34:24.079Z,97470.78
2022-09-09T04:36:52.631Z,97474.66
2022-09-09T04:39:19.176Z,97477.22
2022-09-09T04:41:45.707Z,97478.81
2022-09-09T04:44:12.280Z,97482.19
2022-09-09T04:46:38.921Z,97481.16
2022-09-09T04:49:06.434Z,97480.16
2022-09-09T04:51:33.028Z,97483.31
2022-09-09T04:53:59.638Z,97480.59
2022-09-09T04:56:27.944Z,97486.81
2022-09-09T04:58:55.289Z,97475.97
2022-09-09T05:01:24.297Z,97469.94
2022-09-09T05:03:52.801Z,97468.34
2022-09-09T05:06:21.682Z,97476.28
2022-09-09T05:08:49.486Z,97472.13
2022-09-09T05:11:27.881Z,97477.03
2022-09-09T05:13:54.971Z,97473.41
2022-09-09T05:16:22.430Z,97476.75
2022-09-09T05:18:49.975Z,97478.34
2022-09-09T05:21:18.021Z,97475.00
2022-09-09T05:23:46.262Z,97478.75
2022-09-09T05:26:17.606Z,97479.63
2022-09-09T05:28:45.264Z,97487.97
2022-09-09T05:31:13.828Z,97491.69
2022-09-09T05:33:43.980Z,97487.22
2022-09-09T05:36:16.542Z,97488.22
2022-09-09T05:38:43.685Z,97492.41
2022-09-09T05:41:12.231Z,97485.31
2022-09-09T05:43:39.783Z,97487.03
2022-09-09T05:46:11.819Z,97494.81
2022-09-09T05:48:43.550Z,97496.84
2022-09-09T05:51:16.693Z,97492.84
2022-09-09T05:53:43.920Z,97494.84
2022-09-09T05:56:15.192Z,97501.78
2022-09-09T05:58:44.751Z,97498.16
2022-09-09T06:01:14.849Z,97506.09
2022-09-09T06:03:42.786Z,97496.22
2022-09-09T06:06:12.970Z,97496.50
2022-09-09T06:08:42.056Z,97497.59
2022-09-09T06:11:11.695Z,97486.00
2022-09-09T06:13:39.889Z,97474.97
2022-09-09T06:16:09.785Z,97474.53
2022-09-09T06:18:36.438Z,97474.34
2022-09-09T06:21:05.772Z,97478.78
2022-09-09T06:23:32.534Z,97472.38
2022-09-09T06:26:11.040Z,97478.84
2022-09-09T06:28:38.331Z,97481.88
2022-09-09T06:31:11.176Z,97475.19
2022-09-09T06:33:42.590Z,97486.47
2022-09-09T06:36:13.573Z,97480.81
2022-09-09T06:38:40.369Z,97480.22
2022-09-09T06:41:07.019Z,97476.19
2022-09-09T06:43:33.660Z,97465.69
2022-09-09T06:46:06.462Z,97465.75
2022-09-09T06:48:33.661Z,97455.75
2022-09-09T06:51:22.601Z,97457.69
2022-09-09T06:53:54.433Z,97463.19
2022-09-09T06:56:27.510Z,97470.38
2022-09-09T06:58:55.593Z,97479.50
2022-09-09T07:01:24.782Z,97475.69
2022-09-09T07:03:54.050Z,97471.63
2022-09-09T07:06:32.518Z,97478.78
2022-09-09T07:09:05.923Z,97470.78
2022-09-09T07:11:38.364Z,97475.69
2022-09-09T07:14:04.800Z,97476.03
2022-09-09T07:16:34.539Z,97477.84
2022-09-09T07:19:01.681Z,97474.38
2022-09-09T07:21:29.834Z,97476.91
2022-09-09T07:23:57.512Z,97477.25
2022-09-09T07:26:27.319Z,97475.09
2022-09-09T07:28:54.609Z,97467.06
2022-09-09T07:31:33.264Z,97476.41
2022-09-09T07:34:00.925Z,97474.75
2022-09-09T07:36:33.387Z,97476.69
2022-09-09T07:39:11.984Z,97479.00
2022-09-09T07:41:46.262Z,97482.81
2022-09-09T07:44:15.778Z,97490.44
2022-09-09T07:46:42.950Z,97489.72
2022-09-09T07:49:11.040Z,97491.38
2022-09-09T07:51:40.393Z,97495.03
2022-09-09T07:54:10.344Z,97510.38
2022-09-09T07:56:40.174Z,97512.66
2022-09-09T07:59:08.150Z,97508.97
2022-09-09T08:01:49.342Z,97512.16
2022-09-09T08:04:18.597Z,97512.53
2022-09-09T08:06:57.975Z,97510.66
2022-09-09T08:09:28.057Z,97506.00
2022-09-09T08:11:54.623Z,97503.63
2022-09-09T08:14:21.191Z,97506.97
2022-09-09T08:16:50.139Z,97512.50
2022-09-09T08:19:17.673Z,97507.00
2022-09-09T08:21:45.400Z,97502.91
2022-09-09T08:24:13.545Z,97505.53
2022-09-09T08:26:42.773Z,97508.06
2022-09-09T08:29:11.224Z,97518.22
2022-09-09T08:31:40.474Z,97517.28
2022-09-09T08:34:08.300Z,97516.69
2022-09-09T08:36:39.323Z,97514.06
2022-09-09T08:39:08.272Z,97506.78
2022-09-09T08:42:08.287Z,97499.72
2022-09-09T08:45:10.370Z,97503.91
2022-09-09T08:48:01.411Z,97516.38
2022-09-09T08:50:32.638Z,97521.28
2022-09-09T08:53:27.727Z,97535.63
2022-09-09T08:55:59.766Z,97529.88
2022-09-09T08:58:31.725Z,97520.41
2022-09-09T09:01:47.441Z,97534.88
2022-09-09T09:04:35.557Z,97528.19
2022-09-09T09:07:29.542Z,97524.66
2022-09-09T09:10:40.996Z,97532.94
2022-09-09T09:13:17.150Z,97521.81
2022-09-09T09:15:48.134Z,97525.03
2022-09-09T09:18:16.878Z,97527.78
2022-09-09T09:21:13.720Z,97534.38
2022-09-09T09:23:59.131Z,97532.22
2022-09-09T09:26:31.902Z,97530.09
2022-09-09T09:29:00.232Z,97533.81
2022-09-09T09:31:28.012Z,97534.78
2022-09-09T09:33:56.690Z,97538.38
2022-09-09T09:36:34.103Z,97540.31
2022-09-09T09:41:49.750Z,97540.59
2022-09-09T09:44:31.598Z,97535.81
2022-09-09T09:47:22.811Z,97536.28
2022-09-09T09:50:20.287Z,97530.16
2022-09-09T09:53:07.561Z,97536.97
2022-09-09T09:55:36.134Z,97534.81
2022-09-09T09:58:07.381Z,97542.97
2022-09-09T10:00:37.678Z,97548.81
2022-09-09T10:03:22.420Z,97545.94
2022-09-09T10:05:49.090Z,97545.34
2022-09-09T10:08:17.680Z,97545.75
2022-09-09T10:10:57.442Z,97537.22
2022-09-09T10:14:07.192Z,97536.38
2022-09-09T10:17:05.437Z,97528.78
2022-09-09T10:19:35.118Z,97532.84
2022-09-09T10:22:07.649Z,97535.25
2022-09-09T10:24:51.129Z,97534.69
2022-09-09T10:27:52.279Z,97542.19
2022-09-09T10:30:34.673Z,97536.19
2022-09-09T10:33:14.498Z,97532.53
2022-09-09T10:36:09.550Z,97528.66
2022-09-09T10:38:45.153Z,97535.84
2022-09-09T10:41:35.433Z,97534.91
2022-09-09T10:44:29.651Z,97542.16
2022-09-09T10:47:51.101Z,97537.66
2022-09-09T10:54:13.461Z,97543.94
2022-09-09T10:56:44.749Z,97543.16
2022-09-09T10:59:17.762Z,97546.69
2022-09-09T11:01:59.430Z,97543.44
2022-09-09T11:04:35.430Z,97542.00
2022-09-09T11:07:12.035Z,97532.38
2022-09-09T11:09:46.778Z,97535.56
2022-09-09T11:12:20.003Z,97539.66
2022-09-09T11:15:02.715Z,97533.69
2022-09-09T11:17:43.861Z,97532.38
2022-09-09T11:20:14.826Z,97525.47
2022-09-09T11:22:49.758Z,97527.31
2022-09-09T11:25:26.123Z,97523.44
2022-09-09T11:28:45.692Z,97516.66
2022-09-09T11:31:32.858Z,97525.97
2022-09-09T11:34:20.028Z,97530.38
2022-09-09T11:37:05.840Z,97526.09
2022-09-09T11:39:50.830Z,97514.31
2022-09-09T11:42:21.505Z,97518.31
2022-09-09T11:44:48.710Z,97519.00
2022-09-09T11:47:31.349Z,97520.88
2022-09-09T11:50:37.610Z,97524.06
2022-09-09T11:53:24.609Z,97518.44
2022-09-09T11:56:10.801Z,97524.47
2022-09-09T11:58:57.045Z,97512.81
2022-09-09T12:01:31.035Z,97509.63
2022-09-09T12:04:21.816Z,97504.00
2022-09-09T12:07:33.710Z,97500.59
2022-09-09T12:10:26.574Z,97516.47
2022-09-09T12:12:53.556Z,97517.41
2022-09-09T12:15:31.633Z,97515.47
2022-09-09T12:18:03.906Z,97509.72
2022-09-09T12:20:52.146Z,97502.16
2022-09-09T12:23:38.893Z,97502.47
2022-09-09T12:26:45.664Z,97502.56
2022-09-09T12:29:37.091Z,97511.78
2022-09-09T12:32:19.714Z,97511.28
2022-09-09T12:35:10.637Z,97508.91
2022-09-09T12:37:59.829Z,97512.25
2022-09-09T12:40:33.308Z,97516.03
2022-09-09T12:43:02.260Z,97515.81
2022-09-09T12:45:34.083Z,97511.56
2022-09-09T12:48:18.485Z,97513.09
2022-09-09T12:50:51.613Z,97518.53
2022-09-09T12:53:27.428Z,97518.84
2022-09-09T12:55:59.105Z,97522.13
2022-09-09T12:58:27.165Z,97534.00
2022-09-09T13:00:57.451Z,97526.63
2022-09-09T13:03:25.855Z,97528.47
2022-09-09T13:05:54.307Z,97529.88
2022-09-09T13:08:21.584Z,97528.47
2022-09-09T13:11:00.226Z,97527.16
2022-09-09T13:13:34.471Z,97525.59
2022-09-09T13:16:02.601Z,97517.81
2022-09-09T13:18:40.399Z,97512.19
2022-09-09T13:21:07.282Z,97509.66
2022-09-09T13:23:36.315Z,97512.63
2022-09-09T13:26:22.546Z,97510.97
2022-09-09T13:28:49.633Z,97510.13
2022-09-09T13:31:46.139Z,97514.22
2022-09-09T13:34:30.592Z,97510.84
2022-09-09T13:37:09.119Z,97511.97
2022-09-09T13:39:38.600Z,97505.16
2022-09-09T13:42:07.334Z,97501.06
2022-09-09T13:44:42.749Z,97497.31
2022-09-09T13:47:24.254Z,97493.56
2022-09-09T13:49:50.877Z,97498.00
2022-09-09T13:52:19.868Z,97499.03
2022-09-09T13:54:51.174Z,97498.38
2022-09-09T13:57:26.156Z,97490.94
2022-09-09T14:00:11.325Z,97486.00
2022-09-09T14:02:39.768Z,97492.88
2022-09-09T14:05:06.918Z,97488.50
2022-09-09T14:07:33.860Z,97481.34
2022-09-09T14:10:01.197Z,97479.28
2022-09-09T14:12:28.087Z,97483.81
2022-09-09T14:14:54.726Z,97475.41
2022-09-09T14:17:21.359Z,97482.75
2022-09-09T14:19:48.122Z,97486.72
2022-09-09T14:22:15.110Z,97489.47
2022-09-09T14:24:41.928Z,97497.88
2022-09-09T14:27:08.585Z,97496.47
2022-09-09T14:29:35.164Z,97500.03
2022-09-09T14:32:02.049Z,97498.81
2022-09-09T14:34:28.682Z,97489.81
2022-09-09T14:36:55.250Z,97486.13
2022-09-09T14:39:21.837Z,97486.13
2022-09-09T14:41:48.396Z,97494.28
2022-09-09T14:44:14.958Z,97489.97
2022-09-09T14:46:43.379Z,97495.00
2022-09-09T14:49:11.395Z,97493.22
2022-09-09T14:51:37.953Z,97498.00
2022-09-09T14:54:04.552Z,97495.63
2022-09-09T14:56:35.485Z,97496.69
2022-09-09T14:59:02.973Z,97496.97
2022-09-09T15:01:30.838Z,97503.81
2022-09-09T15:04:03.841Z,97499.41
2022-09-09T15:06:34.007Z,97495.44
2022-09-09T15:09:01.387Z,97494.03
2022-09-09T15:11:31.832Z,97504.34
2022-09-09T15:14:00.422Z,97493.09
2022-09-09T15:16:29.356Z,97497.97
2022-09-09T15:18:57.955Z,97495.84
2022-09-09T15:21:27.430Z,97498.69
2022-09-09T15:23:54.382Z,97498.25
2022-09-09T15:26:21.949Z,97499.34
2022-09-09T15:28:50.662Z,97498.38
2022-09-09T15:31:22.657Z,97501.13
2022-09-09T15:33:50.896Z,97497.78
2022-09-09T15:36:27.515Z,97497.06
2022-09-09T15:38:54.053Z,97498.97
2022-09-09T15:41:22.709Z,97492.63
2022-09-09T15:43:51.508Z,97501.75
2022-09-09T15:46:39.975Z,97500.19
2022-09-09T15:49:18.358Z,97492.53
2022-09-09T15:51:48.050Z,97497.91
2022-09-09T15:54:18.420Z,97495.63
2022-09-09T15:56:47.553Z,97490.72
2022-09-09T15:59:15.718Z,97489.75
2022-09-09T16:01:43.223Z,97487.00
2022-09-09T16:04:10.632Z,97493.13
2022-09-09T16:06:37.724Z,97495.16
2022-09-09T16:09:06.581Z,97499.25
2022-09-09T16:11:37.367Z,97495.75
2022-09-09T16:14:05.032Z,97504.16
2022-09-09T16:16:32.093Z,97499.34
2022-09-09T16:19:01.939Z,97502.13
2022-09-09T16:21:33.901Z,97500.78
2022-09-09T16:24:06.074Z,97497.69
2022-09-09T16:26:34.883Z,97499.94
2022-09-09T16:29:02.332Z,97495.63
2022-09-09T16:31:30.437Z,97484.59
2022-09-09T16:33:57.266Z,97490.84
2022-09-09T16:36:26.667Z,97488.22
2022-09-09T16:38:58.445Z,97490.25
2022-09-09T16:41:26.903Z,97486.78
2022-09-09T16:44:13.555Z,97480.53
2022-09-09T16:46:42.680Z,97474.28
2022-09-09T16:49:11.765Z,97476.59
2022-09-09T16:51:42.504Z,97481.38
2022-09-09T16:54:10.276Z,97475.38
2022-09-09T16:56:40.515Z,97473.22
2022-09-09T16:59:12.779Z,97473.97
2022-09-09T17:01:41.844Z,97474.66
2022-09-09T17:04:21.321Z,97487.00
2022-09-09T17:06:53.235Z,97486.91
2022-09-09T17:09:21.004Z,97480.44
2022-09-09T17:11:48.923Z,97480.06
2022-09-09T17:14:18.489Z,97477.78
2022-09-09T17:16:45.489Z,97478.75
2022-09-09T17:19:13.231Z,97487.63
2022-09-09T17:22:00.002Z,97479.25
2022-09-09T17:24:28.056Z,97483.16
2022-09-09T17:26:55.335Z,97483.06
2022-09-09T17:29:22.728Z,97478.84
2022-09-09T17:31:49.480Z,97489.75
2022-09-09T17:34:16.076Z,97500.06
2022-09-09T17:36:42.705Z,97488.56
2022-09-09T17:39:09.631Z,97491.31
2022-09-09T17:41:38.970Z,97493.72
2022-09-09T17:44:10.561Z,97504.97
2022-09-09T17:46:41.369Z,97499.94
2022-09-09T17:49:13.956Z,97501.13
2022-09-09T17:51:42.571Z,97498.47
2022-09-09T17:54:17.284Z,97501.97
2022-09-09T17:56:46.406Z,97493.69
2022-09-09T17:59:14.842Z,97502.44
2022-09-09T18:01:44.994Z,97497.41
2022-09-09T18:04:16.487Z,97493.09
2022-09-09T18:06:46.433Z,97501.22
2022-09-09T18:09:18.736Z,97511.53
2022-09-09T18:11:47.702Z,97499.91
2022-09-09T18:14:18.148Z,97501.09
2022-09-09T18:16:45.743Z,97507.09
2022-09-09T18:19:14.958Z,97501.81
2022-09-09T18:21:43.835Z,97513.16
2022-09-09T18:24:11.844Z,97508.81
2022-09-09T18:26:41.942Z,97514.22
2022-09-09T18:29:14.272Z,97509.44
2022-09-09T18:31:42.473Z,97508.81
2022-09-09T18:34:11.262Z,97506.19
2022-09-09T18:36:46.890Z,97503.75
2022-09-09T18:39:16.457Z,97504.94
2022-09-09T18:41:46.052Z,97512.50
2022-09-09T18:44:19.256Z,97507.59
2022-09-09T18:46:47.371Z,97514.63
2022-09-09T18:49:15.353Z,97508.09
2022-09-09T18:51:44.476Z,97512.88
2022-09-09T18:54:14.487Z,97520.41
2022-09-09T18:56:41.370Z,97529.50
2022-09-09T18:59:11.236Z,97526.38
2022-09-09T19:01:38.185Z,97532.38
2022-09-09T19:04:06.749Z,97546.59
2022-09-09T19:06:37.087Z,97545.38
2022-09-09T19:09:04.335Z,97549.00
2022-09-09T19:11:32.310Z,97556.69
2022-09-09T19:14:01.637Z,97563.16
2022-09-09T19:16:30.836Z,97557.91
2022-09-09T19:19:06.829Z,97553.97
2022-09-09T19:21:36.555Z,97556.56
2022-09-09T19:24:07.579Z,97560.28
2022-09-09T19:26:40.691Z,97565.34
2022-09-09T19:29:15.314Z,97566.16
2022-09-09T19:32:09.454Z,97568.19
2022-09-09T19:34:32.781Z,97562.69
2022-09-09T19:37:02.611Z,97570.34
2022-09-09T19:39:29.518Z,97569.03
2022-09-09T19:41:56.308Z,97576.00
2022-09-09T19:44:22.782Z,97580.78
2022-09-09T19:46:50.045Z,97582.81
2022-09-09T19:49:17.306Z,97573.22
2022-09-09T19:51:44.276Z,97580.38
2022-09-09T19:54:14.523Z,97575.47
2022-09-09T19:56:42.888Z,97573.75
2022-09-09T19:59:12.637Z,97580.34
2022-09-09T20:01:44.536Z,97578.63
2022-09-09T20:04:12.713Z,97570.63
2022-09-09T20:06:41.026Z,97574.69
2022-09-09T20:09:10.869Z,97573.13
2022-09-09T20:11:39.149Z,97575.03
2022-09-09T20:14:05.806Z,97572.16
2022-09-09T20:16:32.939Z,97573.00
2022-09-09T20:19:02.185Z,97573.00
2022-09-09T20:21:35.107Z,97573.72
2022-09-09T20:24:05.857Z,97565.31
2022-09-09T20:26:35.172Z,97565.31
2022-09-09T20:29:05.384Z,97558.25
2022-09-09T20:31:40.440Z,97552.03
2022-09-09T20:34:10.037Z,97549.28
2022-09-09T20:36:37.790Z,97547.22
2022-09-09T20:39:08.218Z,97534.94
2022-09-09T20:41:37.031Z,97539.13
2022-09-09T20:44:14.280Z,97547.22
2022-09-09T20:46:52.995Z,97542.47
2022-09-09T20:49:21.911Z,97542.47
2022-09-09T20:51:50.349Z,97546.53
2022-09-09T20:54:19.997Z,97549.63
2022-09-09T20:56:48.347Z,97548.19
2022-09-09T20:59:17.573Z,97547.59
2022-09-09T21:01:45.015Z,97550.47
2022-09-09T21:04:12.459Z,97547.91
2022-09-09T21:06:39.531Z,97542.75
2022-09-09T21:09:06.504Z,97534.22
2022-09-09T21:11:34.973Z,97536.41
2022-09-09T21:14:02.524Z,97538.31
2022-09-09T21:16:29.202Z,97531.09
2022-09-09T21:18:55.965Z,97528.69
2022-09-09T21:21:22.872Z,97528.28
2022-09-09T21:23:50.531Z,97521.09
2022-09-09T21:26:20.500Z,97525.13
2022-09-09T21:28:47.065Z,97537.00
2022-09-09T21:31:15.242Z,97537.00
2022-09-09T21:33:43.001Z,97536.06
2022-09-09T21:36:11.389Z,97537.81
2022-09-09T21:38:40.341Z,97539.72
2022-09-09T21:41:13.329Z,97545.81
2022-09-09T21:43:42.017Z,97541.75
2022-09-09T21:46:10.414Z,97543.31
2022-09-09T21:48:37.443Z,97557.34
2022-09-09T21:51:10.312Z,97550.53
2022-09-09T21:53:37.534Z,97561.06
2022-09-09T21:56:07.063Z,97570.78
2022-09-09T21:58:34.736Z,97571.50
2022-09-09T22:01:01.973Z,97571.75
2022-09-09T22:03:28.603Z,97565.66
2022-09-09T22:05:55.176Z,97576.34
2022-09-09T22:08:21.853Z,97576.81
2022-09-09T22:10:48.558Z,97578.78
2022-09-09T22:13:17.100Z,97583.09
2022-09-09T22:15:45.747Z,97584.16
2022-09-09T22:18:14.182Z,97585.03
2022-09-09T22:20:43.942Z,97575.75
2022-09-09T22:23:14.317Z,97584.00
2022-09-09T22:25:41.159Z,97579.50
2022-09-09T22:28:09.345Z,97579.91
2022-09-09T22:30:36.304Z,97572.38
2022-09-09T22:33:02.969Z,97581.34
2022-09-09T22:35:29.544Z,97580.16
2022-09-09T22:37:57.059Z,97584.22
2022-09-09T22:40:23.961Z,97577.16
2022-09-09T22:42:52.983Z,97573.69
2022-09-09T22:45:20.895Z,97579.00
2022-09-09T22:47:47.902Z,97575.53
2022-09-09T22:50:14.905Z,97575.53
2022-09-09T22:52:41.513Z,97587.31
2022-09-09T22:55:09.362Z,97587.63
2022-09-09T22:57:36.373Z,97580.28
2022-09-09T23:00:08.837Z,97588.38
2022-09-09T23:02:40.682Z,97587.53
2022-09-09T23:05:08.817Z,97590.88
2022-09-09T23:07:36.714Z,97578.88
2022-09-09T23:10:05.375Z,97581.38
2022-09-09T23:12:32.158Z,97572.97
2022-09-09T23:14:58.934Z,97571.69
2022-09-09T23:17:26.066Z,97575.72
2022-09-09T23:19:57.070Z,97552.88
2022-09-09T23:22:24.603Z,97543.06
2022-09-09T23:24:54.058Z,97539.00
2022-09-09T23:27:24.177Z,97538.00
2022-09-09T23:29:51.740Z,97540.88
2022-09-09T23:32:18.547Z,97546.97
2022-09-09T23:34:47.260Z,97540.16
2022-09-09T23:37:13.918Z,97544.22
2022-09-09T23:39:40.910Z,97535.72
2022-09-09T23:42:11.790Z,97537.88
2022-09-09T23:44:39.543Z,97546.72
2022-09-09T23:47:07.456Z,97547.25
2022-09-09T23:49:35.033Z,97525.25
2022-09-09T23:52:05.350Z,97522.69
2022-09-09T23:54:34.147Z,97523.84
2022-09-09T23:57:02.350Z,97528.47
2022-09-09T23:59:29.935Z,97523.31
